createdAt,value
2022-09-22T00:01:33.031Z,5.50
2022-09-22T00:04:03.718Z,6.15
2022-09-22T00:06:34.935Z,5.93
2022-09-22T00:09:03.883Z,5.88
2022-09-22T00:11:37.957Z,5.88
2022-09-22T00:14:15.206Z,7.55
2022-09-22T00:16:54.411Z,7.70
2022-09-22T00:19:25.970Z,4.18
2022-09-22T00:21:56.382Z,5.85
2022-09-22T00:24:25.004Z,7.15
2022-09-22T00:26:55.217Z,5.70
2022-09-22T00:29:23.895Z,9.05
2022-09-22T00:31:51.183Z,9.93
2022-09-22T00:34:26.383Z,8.82
2022-09-22T00:36:56.869Z,7.38
2022-09-22T00:39:24.095Z,6.07
2022-09-22T00:41:52.622Z,7.22
2022-09-22T00:44:43.102Z,9.80
2022-09-22T00:47:29.540Z,9.85
2022-09-22T00:50:09.058Z,6.00
2022-09-22T00:52:55.784Z,7.07
2022-09-22T00:55:36.151Z,7.25
2022-09-22T00:58:12.130Z,7.18
2022-09-22T01:00:39.897Z,6.55
2022-09-22T01:03:13.172Z,8.00
2022-09-22T01:05:42.684Z,7.85
2022-09-22T01:08:12.483Z,8.43
2022-09-22T01:10:40.100Z,7.00
2022-09-22T01:13:25.872Z,7.70
2022-09-22T01:16:32.689Z,6.10
2022-09-22T01:19:25.829Z,8.35
2022-09-22T01:22:32.616Z,8.10
2022-09-22T01:24:59.745Z,6.38
2022-09-22T01:27:38.908Z,7.20
2022-09-22T01:30:08.980Z,5.78
2022-09-22T01:32:43.053Z,6.18
2022-09-22T01:35:19.521Z,6.25
2022-09-22T01:38:01.803Z,6.07
2022-09-22T01:40:42.746Z,8.05
2022-09-22T01:43:16.422Z,6.75
2022-09-22T01:48:30.842Z,6.03
2022-09-22T01:51:04.460Z,6.20
2022-09-22T01:53:40.554Z,6.07
2022-09-22T01:56:10.983Z,7.13
2022-09-22T01:58:45.980Z,7.43
2022-09-22T02:01:19.612Z,5.93
2022-09-22T02:03:54.430Z,5.97
2022-09-22T02:06:39.012Z,6.00
2022-09-22T02:09:10.590Z,6.63
2022-09-22T02:11:38.169Z,8.55
2022-09-22T02:14:06.897Z,6.28
2022-09-22T02:16:35.041Z,6.35
2022-09-22T02:19:13.425Z,6.40
2022-09-22T02:21:43.913Z,7.43
2022-09-22T02:24:33.922Z,5.43
2022-09-22T02:27:06.073Z,6.85
2022-09-22T02:29:40.888Z,7.47
2022-09-22T02:32:11.687Z,5.63
2022-09-22T02:34:39.098Z,6.40
2022-09-22T02:37:38.951Z,4.57
2022-09-22T02:40:15.853Z,6.07
2022-09-22T02:42:52.216Z,4.65
2022-09-22T02:45:26.553Z,5.25
2022-09-22T02:48:18.623Z,6.43
2022-09-22T02:50:46.446Z,5.55
2022-09-22T02:53:17.204Z,4.80
2022-09-22T02:55:45.691Z,5.78
2022-09-22T02:58:19.411Z,6.60
2022-09-22T03:00:51.363Z,9.45
2022-09-22T03:03:18.540Z,5.43
2022-09-22T03:05:45.826Z,7.90
2022-09-22T03:08:15.449Z,6.65
2022-09-22T03:10:42.888Z,6.15
2022-09-22T03:13:17.543Z,8.07
2022-09-22T03:15:46.437Z,7.43
2022-09-22T03:18:14.163Z,11.38
2022-09-22T03:20:42.003Z,7.05
2022-09-22T03:23:09.716Z,11.65
2022-09-22T03:25:39.580Z,9.82
2022-09-22T03:28:07.101Z,7.68
2022-09-22T03:30:35.804Z,7.40
2022-09-22T03:33:03.262Z,7.20
2022-09-22T03:35:32.964Z,8.10
2022-09-22T03:38:02.749Z,6.90
2022-09-22T03:40:32.433Z,7.30
2022-09-22T03:42:59.903Z,6.75
2022-09-22T03:45:29.638Z,6.35
2022-09-22T03:47:59.024Z,6.07
2022-09-22T03:50:29.019Z,9.07
2022-09-22T03:52:57.593Z,10.02
2022-09-22T03:55:25.379Z,8.60
2022-09-22T03:57:52.703Z,9.10
2022-09-22T04:00:22.100Z,6.25
2022-09-22T04:02:49.344Z,6.65
2022-09-22T04:05:17.055Z,5.95
2022-09-22T04:07:45.054Z,6.90
2022-09-22T04:10:14.794Z,5.93
2022-09-22T04:12:41.949Z,7.22
2022-09-22T04:15:09.695Z,8.27
2022-09-22T04:17:39.936Z,6.85
2022-09-22T04:20:08.229Z,6.75
2022-09-22T04:22:35.883Z,9.27
2022-09-22T04:25:03.428Z,6.68
2022-09-22T04:27:32.867Z,6.60
2022-09-22T04:30:00.939Z,8.77
2022-09-22T04:32:30.263Z,9.38
2022-09-22T04:34:59.651Z,6.03
2022-09-22T04:37:27.142Z,7.82
2022-09-22T04:39:55.531Z,6.53
2022-09-22T04:42:25.227Z,5.88
2022-09-22T04:44:57.209Z,9.07
2022-09-22T04:47:24.439Z,9.43
2022-09-22T04:49:51.761Z,8.07
2022-09-22T04:52:18.980Z,6.25
2022-09-22T04:54:48.761Z,6.03
2022-09-22T04:57:20.226Z,5.68
2022-09-22T04:59:50.708Z,6.90
2022-09-22T05:02:18.379Z,8.10
2022-09-22T05:04:46.110Z,6.32
2022-09-22T05:07:13.819Z,9.07
2022-09-22T05:09:43.528Z,5.65
2022-09-22T05:12:10.802Z,6.28
2022-09-22T05:14:38.001Z,5.00
2022-09-22T05:17:06.000Z,8.80
2022-09-22T05:19:33.674Z,6.32
2022-09-22T05:22:01.482Z,6.38
2022-09-22T05:24:28.714Z,6.50
2022-09-22T05:26:55.908Z,5.97
2022-09-22T05:29:28.009Z,6.60
2022-09-22T05:31:55.487Z,8.85
2022-09-22T05:34:23.268Z,6.30
2022-09-22T05:36:50.937Z,7.47
2022-09-22T05:39:22.593Z,7.68
2022-09-22T05:41:50.461Z,6.20
2022-09-22T05:44:17.698Z,7.45
2022-09-22T05:46:46.733Z,10.32
2022-09-22T05:49:14.341Z,9.10
2022-09-22T05:51:42.420Z,7.72
2022-09-22T05:54:13.978Z,7.13
2022-09-22T05:56:41.594Z,9.55
2022-09-22T05:59:14.034Z,7.53
2022-09-22T06:01:41.826Z,7.18
2022-09-22T06:04:09.104Z,8.05
2022-09-22T06:06:36.303Z,11.82
2022-09-22T06:09:04.090Z,6.78
2022-09-22T06:11:31.339Z,7.03
2022-09-22T06:14:00.967Z,7.47
2022-09-22T06:16:29.956Z,7.18
2022-09-22T06:18:57.232Z,8.23
2022-09-22T06:21:25.921Z,6.97
2022-09-22T06:23:57.544Z,8.18
2022-09-22T06:26:24.801Z,9.38
2022-09-22T06:28:57.248Z,10.07
2022-09-22T06:31:28.927Z,7.55
2022-09-22T06:33:56.763Z,6.20
2022-09-22T06:36:31.337Z,7.43
2022-09-22T06:38:59.156Z,8.30
2022-09-22T06:41:31.696Z,7.43
2022-09-22T06:43:59.252Z,7.20
2022-09-22T06:46:31.396Z,10.15
2022-09-22T06:48:58.807Z,9.32
2022-09-22T06:51:32.952Z,9.23
2022-09-22T06:54:05.031Z,7.68
2022-09-22T06:56:37.970Z,9.07
2022-09-22T06:59:10.932Z,8.17
2022-09-22T07:01:40.615Z,10.43
2022-09-22T07:04:08.859Z,7.07
2022-09-22T07:06:37.398Z,9.45
2022-09-22T07:09:05.942Z,7.88
2022-09-22T07:11:36.348Z,13.60
2022-09-22T07:14:12.716Z,9.57
2022-09-22T07:16:40.902Z,8.38
2022-09-22T07:19:08.640Z,11.30
2022-09-22T07:21:37.894Z,8.48
2022-09-22T07:24:08.305Z,8.30
2022-09-22T07:26:39.624Z,9.82
2022-09-22T07:29:13.484Z,9.57
2022-09-22T07:31:41.822Z,10.07
2022-09-22T07:34:09.855Z,9.27
2022-09-22T07:36:37.477Z,10.00
2022-09-22T07:39:11.228Z,9.02
2022-09-22T07:41:43.252Z,12.23
2022-09-22T07:44:31.401Z,8.57
2022-09-22T07:47:01.855Z,7.85
2022-09-22T07:49:30.037Z,9.82
2022-09-22T07:51:58.065Z,8.77
2022-09-22T07:54:26.336Z,10.52
2022-09-22T07:56:58.550Z,9.95
2022-09-22T07:59:27.383Z,8.77
2022-09-22T08:01:57.340Z,10.57
2022-09-22T08:04:26.328Z,10.20
2022-09-22T08:06:58.322Z,8.88
2022-09-22T08:09:25.951Z,8.02
2022-09-22T08:11:53.849Z,8.10
2022-09-22T08:14:23.032Z,11.13
2022-09-22T08:16:54.153Z,7.20
2022-09-22T08:19:26.617Z,5.63
2022-09-22T08:21:54.358Z,7.03
2022-09-22T08:24:24.578Z,5.32
2022-09-22T08:26:55.829Z,8.25
2022-09-22T08:29:25.806Z,6.45
2022-09-22T08:31:54.154Z,8.38
2022-09-22T08:34:24.350Z,7.47
2022-09-22T08:36:52.094Z,7.97
2022-09-22T08:39:22.208Z,6.70
2022-09-22T08:42:08.235Z,5.32
2022-09-22T08:44:41.488Z,4.70
2022-09-22T08:47:17.124Z,3.60
2022-09-22T08:50:07.385Z,3.78
2022-09-22T08:52:50.911Z,4.63
2022-09-22T08:55:25.996Z,3.40
2022-09-22T08:58:39.621Z,5.68
2022-09-22T09:01:24.402Z,4.50
2022-09-22T09:03:59.742Z,7.93
2022-09-22T09:06:59.319Z,6.55
2022-09-22T09:09:50.230Z,7.63
2022-09-22T09:12:48.384Z,5.00
2022-09-22T09:15:26.809Z,4.40
2022-09-22T09:18:01.198Z,5.60
2022-09-22T09:20:43.631Z,2.30
2022-09-22T09:23:18.132Z,3.33
2022-09-22T09:25:52.357Z,2.05
2022-09-22T09:28:27.854Z,1.70
2022-09-22T09:31:07.655Z,3.10
2022-09-22T09:33:55.417Z,2.67
2022-09-22T09:36:29.445Z,1.17
2022-09-22T09:38:58.856Z,1.88
2022-09-22T09:41:32.493Z,2.45
2022-09-22T09:44:04.348Z,1.35
2022-09-22T09:46:41.544Z,2.00
2022-09-22T09:49:14.862Z,2.80
2022-09-22T09:54:20.454Z,3.05
2022-09-22T09:57:10.680Z,3.17
2022-09-22T10:00:25.026Z,4.47
2022-09-22T10:05:36.231Z,1.98
2022-09-22T10:08:20.264Z,1.77
2022-09-22T10:10:54.886Z,1.80
2022-09-22T10:13:33.481Z,1.13
2022-09-22T10:16:09.795Z,2.47
2022-09-22T10:18:41.859Z,3.55
2022-09-22T10:21:23.697Z,1.23
2022-09-22T10:23:55.176Z,1.60
2022-09-22T10:26:27.078Z,1.73
2022-09-22T10:29:27.789Z,1.92
2022-09-22T10:32:14.866Z,3.13
2022-09-22T10:34:54.767Z,1.80
2022-09-22T10:37:31.164Z,1.52
2022-09-22T10:40:01.812Z,2.90
2022-09-22T10:42:36.451Z,1.55
2022-09-22T10:45:10.320Z,4.10
2022-09-22T10:47:57.572Z,1.27
2022-09-22T10:50:41.362Z,3.70
2022-09-22T10:53:51.300Z,1.52
2022-09-22T10:56:38.945Z,2.50
2022-09-22T10:59:27.433Z,3.50
2022-09-22T11:02:03.902Z,2.38
2022-09-22T11:04:49.848Z,3.38
2022-09-22T11:07:50.815Z,7.32
2022-09-22T11:10:56.326Z,2.55
2022-09-22T11:13:59.962Z,1.92
2022-09-22T11:16:39.979Z,10.75
2022-09-22T11:19:26.836Z,4.38
2022-09-22T11:22:19.012Z,5.43
2022-09-22T11:25:24.342Z,1.70
2022-09-22T11:27:56.688Z,1.38
2022-09-22T11:30:24.140Z,2.65
2022-09-22T11:33:11.267Z,1.35
2022-09-22T11:36:00.090Z,0.60
2022-09-22T11:38:34.949Z,3.35
2022-09-22T11:41:15.787Z,1.88
2022-09-22T11:43:52.652Z,1.52
2022-09-22T11:46:47.640Z,2.05
2022-09-22T11:49:39.936Z,1.00
2022-09-22T11:52:47.074Z,1.40
2022-09-22T11:55:26.112Z,2.40
2022-09-22T11:58:01.706Z,0.73
2022-09-22T12:00:42.315Z,2.97
2022-09-22T12:03:21.322Z,1.90
2022-09-22T12:06:03.770Z,0.90
2022-09-22T12:08:38.063Z,1.20
2022-09-22T12:11:11.498Z,1.67
2022-09-22T12:13:46.223Z,1.73
2022-09-22T12:16:31.302Z,1.55
2022-09-22T12:19:02.350Z,1.75
2022-09-22T12:21:54.631Z,2.25
2022-09-22T12:24:22.091Z,1.20
2022-09-22T12:26:53.631Z,1.55
2022-09-22T12:29:30.619Z,2.83
2022-09-22T12:32:02.111Z,1.20
2022-09-22T12:34:37.646Z,1.77
2022-09-22T12:37:29.666Z,0.93
2022-09-22T12:40:10.102Z,1.35
2022-09-22T12:42:41.202Z,1.27
2022-09-22T12:45:29.271Z,1.20
2022-09-22T12:47:57.949Z,0.60
2022-09-22T12:50:31.122Z,2.40
2022-09-22T12:53:28.282Z,1.30
2022-09-22T12:55:57.703Z,1.42
2022-09-22T12:58:30.900Z,3.08
2022-09-22T13:01:33.527Z,1.33
2022-09-22T13:04:16.776Z,1.75
2022-09-22T13:06:43.920Z,1.17
2022-09-22T13:09:21.347Z,1.50
2022-09-22T13:12:14.413Z,1.20
2022-09-22T13:15:04.489Z,0.93
2022-09-22T13:17:44.047Z,2.78
2022-09-22T13:20:19.099Z,1.85
2022-09-22T13:22:51.940Z,1.13
2022-09-22T13:25:25.648Z,1.35
2022-09-22T13:28:12.107Z,1.42
2022-09-22T13:30:42.023Z,1.42
2022-09-22T13:33:26.296Z,1.42
2022-09-22T13:36:14.535Z,2.45
2022-09-22T13:38:51.830Z,1.35
2022-09-22T13:41:21.069Z,2.83
2022-09-22T13:43:51.943Z,3.80
2022-09-22T13:46:47.006Z,2.03
2022-09-22T13:49:28.699Z,1.48
2022-09-22T13:52:02.020Z,0.93
2022-09-22T13:57:01.362Z,1.30
2022-09-22T13:59:38.466Z,1.40
2022-09-22T14:02:12.422Z,0.55
2022-09-22T14:04:52.868Z,3.83
2022-09-22T14:07:22.158Z,0.90
2022-09-22T14:09:50.657Z,3.42
2022-09-22T14:12:18.586Z,1.77
2022-09-22T14:14:45.854Z,1.85
2022-09-22T14:17:20.938Z,2.40
2022-09-22T14:20:02.955Z,1.23
2022-09-22T14:22:40.300Z,3.60
2022-09-22T14:25:19.360Z,0.77
2022-09-22T14:27:59.166Z,1.45
2022-09-22T14:30:31.233Z,2.30
2022-09-22T14:33:02.100Z,1.38
2022-09-22T14:35:32.643Z,1.23
2022-09-22T14:38:17.188Z,1.42
2022-09-22T14:40:55.908Z,1.67
2022-09-22T14:43:27.533Z,0.73
2022-09-22T14:46:08.730Z,1.55
2022-09-22T14:48:37.296Z,1.10
2022-09-22T14:51:08.832Z,1.35
2022-09-22T14:53:41.902Z,1.13
2022-09-22T14:56:16.966Z,1.15
2022-09-22T14:58:51.643Z,0.63
2022-09-22T15:01:52.487Z,2.42
2022-09-22T15:04:32.314Z,1.27
2022-09-22T15:06:59.970Z,0.32
2022-09-22T15:09:35.672Z,0.77
2022-09-22T15:12:05.412Z,0.63
2022-09-22T15:14:42.062Z,0.95
2022-09-22T15:17:53.043Z,0.68
2022-09-22T15:20:22.733Z,0.85
2022-09-22T15:22:50.135Z,0.93
2022-09-22T15:25:19.642Z,0.60
2022-09-22T15:27:47.313Z,1.60
2022-09-22T15:30:18.491Z,1.15
2022-09-22T15:32:47.726Z,0.55
2022-09-22T15:35:20.366Z,0.98
2022-09-22T15:37:50.131Z,2.72
2022-09-22T15:40:22.116Z,0.85
2022-09-22T15:43:11.804Z,0.60
2022-09-22T15:45:37.814Z,0.95
2022-09-22T15:48:05.826Z,1.20
2022-09-22T15:50:35.743Z,2.20
2022-09-22T15:53:02.994Z,3.17
2022-09-22T15:55:30.804Z,0.70
2022-09-22T15:58:07.276Z,1.45
2022-09-22T16:00:38.126Z,0.70
2022-09-22T16:03:33.536Z,0.75
2022-09-22T16:06:08.410Z,1.05
2022-09-22T16:08:42.230Z,2.38
2022-09-22T16:11:15.314Z,0.73
2022-09-22T16:13:45.476Z,1.02
2022-09-22T16:16:12.779Z,3.83
2022-09-22T16:18:41.803Z,3.47
2022-09-22T16:21:20.238Z,1.27
2022-09-22T16:23:47.980Z,0.85
2022-09-22T16:26:15.859Z,1.38
2022-09-22T16:28:43.579Z,0.90
2022-09-22T16:31:11.390Z,1.58
2022-09-22T16:33:38.678Z,1.23
2022-09-22T16:36:06.022Z,0.80
2022-09-22T16:38:36.182Z,0.40
2022-09-22T16:41:18.468Z,1.30
2022-09-22T16:43:48.437Z,1.40
2022-09-22T16:46:28.434Z,1.00
2022-09-22T16:49:07.502Z,1.33
2022-09-22T16:51:38.171Z,3.38
2022-09-22T16:54:07.781Z,1.45
2022-09-22T16:56:39.677Z,0.98
2022-09-22T16:59:07.793Z,0.57
2022-09-22T17:01:38.760Z,1.58
2022-09-22T17:04:10.014Z,0.50
2022-09-22T17:06:39.168Z,3.53
2022-09-22T17:09:08.361Z,0.77
2022-09-22T17:11:39.188Z,1.67
2022-09-22T17:14:12.513Z,3.20
2022-09-22T17:19:19.776Z,1.33
2022-09-22T17:21:48.619Z,2.95
2022-09-22T17:24:19.310Z,2.28
2022-09-22T17:26:49.423Z,1.00
2022-09-22T17:29:25.515Z,1.00
2022-09-22T17:31:59.376Z,2.88
2022-09-22T17:34:30.800Z,1.25
2022-09-22T17:36:59.020Z,1.10
2022-09-22T17:39:28.559Z,1.10
2022-09-22T17:41:56.297Z,0.85
2022-09-22T17:44:28.614Z,1.10
2022-09-22T17:47:14.766Z,1.73
2022-09-22T17:50:03.345Z,1.30
2022-09-22T17:52:33.316Z,1.20
2022-09-22T17:55:09.661Z,2.15
2022-09-22T17:57:45.403Z,1.98
2022-09-22T18:00:14.927Z,2.75
2022-09-22T18:02:42.373Z,1.52
2022-09-22T18:05:15.431Z,1.20
2022-09-22T18:07:44.909Z,0.77
2022-09-22T18:10:15.028Z,3.92
2022-09-22T18:12:45.250Z,1.70
2022-09-22T18:15:13.457Z,0.70
2022-09-22T18:17:44.580Z,1.85
2022-09-22T18:20:14.848Z,1.38
2022-09-22T18:22:47.540Z,1.15
2022-09-22T18:25:19.301Z,3.17
2022-09-22T18:27:50.017Z,1.80
2022-09-22T18:30:18.440Z,3.53
2022-09-22T18:32:47.637Z,1.52
2022-09-22T18:35:17.616Z,1.17
2022-09-22T18:37:47.440Z,1.92
2022-09-22T18:40:16.795Z,7.38
2022-09-22T18:42:44.629Z,1.17
2022-09-22T18:45:12.584Z,3.97
2022-09-22T18:47:43.455Z,1.45
2022-09-22T18:50:12.157Z,3.08
2022-09-22T18:52:43.200Z,5.82
2022-09-22T18:55:11.633Z,2.20
2022-09-22T18:57:39.331Z,4.00
2022-09-22T19:00:07.824Z,2.28
2022-09-22T19:02:35.218Z,2.15
2022-09-22T19:05:02.631Z,2.47
2022-09-22T19:07:42.512Z,6.30
2022-09-22T19:10:20.866Z,4.80
2022-09-22T19:12:49.357Z,3.78
2022-09-22T19:15:18.948Z,1.50
2022-09-22T19:17:49.215Z,4.15
2022-09-22T19:20:23.748Z,3.47
2022-09-22T19:22:53.965Z,2.45
2022-09-22T19:25:22.928Z,4.75
2022-09-22T19:27:55.844Z,5.38
2022-09-22T19:30:25.694Z,1.80
2022-09-22T19:32:55.302Z,4.85
2022-09-22T19:35:23.054Z,3.28
2022-09-22T19:37:53.830Z,4.85
2022-09-22T19:40:24.606Z,2.45
2022-09-22T19:42:53.892Z,3.72
2022-09-22T19:45:21.869Z,3.30
2022-09-22T19:47:49.109Z,2.53
2022-09-22T19:50:16.903Z,4.38
2022-09-22T19:52:44.330Z,4.22
2022-09-22T19:55:12.381Z,4.13
2022-09-22T19:57:41.713Z,4.25
2022-09-22T20:00:25.764Z,3.42
2022-09-22T20:03:00.880Z,2.45
2022-09-22T20:05:36.820Z,4.20
2022-09-22T20:08:05.530Z,4.13
2022-09-22T20:10:37.004Z,3.83
2022-09-22T20:13:24.230Z,3.97
2022-09-22T20:15:53.992Z,3.92
2022-09-22T20:18:21.641Z,2.75
2022-09-22T20:20:56.646Z,4.95
2022-09-22T20:23:24.631Z,3.53
2022-09-22T20:25:52.141Z,2.67
2022-09-22T20:28:19.855Z,3.45
2022-09-22T20:30:47.105Z,5.15
2022-09-22T20:33:20.475Z,4.28
2022-09-22T20:35:55.552Z,3.03
2022-09-22T20:38:22.904Z,3.08
2022-09-22T20:40:50.547Z,3.53
2022-09-22T20:43:18.404Z,4.93
2022-09-22T20:45:47.862Z,3.47
2022-09-22T20:48:19.220Z,3.58
2022-09-22T20:50:59.051Z,6.63
2022-09-22T20:53:27.804Z,3.33
2022-09-22T20:56:02.110Z,5.35
2022-09-22T20:58:33.865Z,2.78
2022-09-22T21:01:03.049Z,5.38
2022-09-22T21:03:33.195Z,6.00
2022-09-22T21:06:02.391Z,4.65
2022-09-22T21:08:49.256Z,4.20
2022-09-22T21:11:22.461Z,3.95
2022-09-22T21:13:56.553Z,3.28
2022-09-22T21:16:24.294Z,8.40
2022-09-22T21:18:51.878Z,4.18
2022-09-22T21:21:21.101Z,3.92
2022-09-22T21:23:51.280Z,5.20
2022-09-22T21:26:20.735Z,4.75
2022-09-22T21:28:51.226Z,6.05
2022-09-22T21:31:19.784Z,3.17
2022-09-22T21:33:47.636Z,2.92
2022-09-22T21:36:20.231Z,3.83
2022-09-22T21:38:55.781Z,3.65
2022-09-22T21:41:25.448Z,3.60
2022-09-22T21:43:55.319Z,4.35
2022-09-22T21:46:24.976Z,2.95
2022-09-22T21:48:59.207Z,3.00
2022-09-22T21:51:30.598Z,3.42
2022-09-22T21:53:57.848Z,3.08
2022-09-22T21:56:30.020Z,3.33
2022-09-22T21:59:00.450Z,4.25
2022-09-22T22:01:36.381Z,4.90
2022-09-22T22:04:08.200Z,4.90
2022-09-22T22:06:44.723Z,4.32
2022-09-22T22:09:20.504Z,3.47
2022-09-22T22:11:56.722Z,4.53
2022-09-22T22:14:26.683Z,6.60
2022-09-22T22:16:55.499Z,7.25
2022-09-22T22:19:25.807Z,3.33
2022-09-22T22:21:54.388Z,6.95
2022-09-22T22:24:42.487Z,5.03
2022-09-22T22:27:11.357Z,4.40
2022-09-22T22:29:38.942Z,3.35
2022-09-22T22:32:10.455Z,5.07
2022-09-22T22:34:38.243Z,4.45
2022-09-22T22:37:09.409Z,5.57
2022-09-22T22:39:39.198Z,9.07
2022-09-22T22:42:11.615Z,3.58
2022-09-22T22:44:38.825Z,5.00
2022-09-22T22:47:08.962Z,4.85
2022-09-22T22:49:36.179Z,4.38
2022-09-22T22:52:03.537Z,6.47
2022-09-22T22:54:30.744Z,4.90
2022-09-22T22:57:00.550Z,5.57
2022-09-22T22:59:30.109Z,4.35
2022-09-22T23:01:59.429Z,4.25
2022-09-22T23:04:27.314Z,4.63
2022-09-22T23:06:56.987Z,5.43
2022-09-22T23:09:24.656Z,5.35
2022-09-22T23:11:53.977Z,5.32
2022-09-22T23:14:21.690Z,5.10
2022-09-22T23:16:49.510Z,6.43
2022-09-22T23:19:18.529Z,5.68
2022-09-22T23:21:48.493Z,5.43
2022-09-22T23:24:19.188Z,6.95
2022-09-22T23:26:47.487Z,8.90
2022-09-22T23:29:17.120Z,6.07
2022-09-22T23:31:44.774Z,6.57
2022-09-22T23:34:11.929Z,6.18
2022-09-22T23:36:39.816Z,7.82
2022-09-22T23:39:07.202Z,6.20
2022-09-22T23:41:36.341Z,6.07
2022-09-22T23:44:07.050Z,6.13
2022-09-22T23:46:34.901Z,10.95
2022-09-22T23:49:02.442Z,6.30
2022-09-22T23:51:30.109Z,7.47
2022-09-22T23:53:57.682Z,5.57
2022-09-22T23:56:25.382Z,10.57
2022-09-22T23:58:52.928Z,6.88
